Dades meteomassalio
Diari Summary for Juliol 8, 2017 Units:  Metric    English   Both
« Previous Day
Next Day »
Diari Semanal Mensual Anual Personalitzat
  Maxima: Minima: Mijana:
Temperatura: -17.8 °C -7.7 °C -4.3 °C
Rosada: -17.8 °C -12.3 °C -9.2 °C
Humitat: Humidity % 34 % 61 %
Velocitat del vent: 0 km/h 0 km/h 12.6 km/h
Racha vent: 0 km/h - -
Vent:- - SE
Pressio: 0 hPa 34178.3 hPa -
Pluja: 607.06 mm    
Historical Graphs
 
 
Tabular Data for Juliol 8, 2017
Time Temperature Dew Point Pressure Wind Wind Speed Wind Gust Humidity Rainfall Rate (Hourly) solar Conditions
-17.8 °C -17.8 °C 0 hPa Calm     Humidity % 0 mm SolarRadiationWatts/m^2 W/m2 Conditions
00:04 -2.3 °C -11.7 °C 34371.3 hPa Calm     35 % 0 mm 0.0 W/m2 CLR
00:09 -2.3 °C -11.9 °C 34371.3 hPa Calm     34 % 0 mm 0.0 W/m2 CLR
00:14 -2.3 °C -11.9 °C 34384.8 hPa SW 15.6 km/h 15.6 km/h 34 % 0 mm 0.0 W/m2 CLR
00:19 -2.4 °C -12 °C 34395 hPa West 11.9 km/h 11.9 km/h 34 % 0 mm 0.0 W/m2 CLR
00:24 -2.4 °C -12.1 °C 34418.7 hPa West 20.9 km/h 20.9 km/h 34 % 0 mm 0.0 W/m2 CLR
00:29 -2.5 °C -11.8 °C 34418.7 hPa WNW 20.9 km/h 20.9 km/h 35 % 0 mm 0.0 W/m2 CLR
00:34 -2.6 °C -12.2 °C 34405.1 hPa West 17.9 km/h 17.9 km/h 34 % 0 mm 0.0 W/m2 CLR
00:39 -2.6 °C -12.2 °C 34405.1 hPa Calm     34 % 0 mm 0.0 W/m2 CLR
00:44 -2.7 °C -12.1 °C 34405.1 hPa Calm     35 % 0 mm 0.0 W/m2 CLR
00:49 -2.8 °C -11.8 °C 34405.1 hPa Calm     36 % 0 mm 0.0 W/m2 CLR
00:54 -2.9 °C -11.9 °C 34395 hPa Calm     36 % 0 mm 0.0 W/m2 CLR
00:59 -2.9 °C -11.8 °C 34371.3 hPa NE 12.9 km/h 12.9 km/h 37 % 0 mm 0.0 W/m2 CLR
01:04 -3.1 °C -11.9 °C 34361.1 hPa ENE 11.9 km/h 11.9 km/h 37 % 0 mm 0.0 W/m2 CLR
01:09 -3.2 °C -11.9 °C 34347.6 hPa NE 17.9 km/h 17.9 km/h 37 % 0 mm 0.0 W/m2 CLR
01:14 -3.2 °C -12 °C 34337.4 hPa NNE 17.9 km/h 17.9 km/h 37 % 0 mm 0.0 W/m2 CLR
01:19 -3.2 °C -12 °C 34337.4 hPa North 15.6 km/h 15.6 km/h 37 % 0 mm 0.0 W/m2 CLR
01:24 -3.2 °C -11.8 °C 34347.6 hPa NNE 10.3 km/h 10.3 km/h 38 % 0 mm 0.0 W/m2 CLR
01:29 -3.2 °C -11.6 °C 34361.1 hPa Calm     39 % 0 mm 0.0 W/m2 CLR
01:34 -3.3 °C -11.6 °C 34361.1 hPa Calm     39 % 0 mm 0.0 W/m2 CLR
01:39 -3.3 °C -11.5 °C 34361.1 hPa Calm     40 % 0 mm 0.0 W/m2 CLR
01:44 -3.4 °C -11.6 °C 34361.1 hPa Calm     40 % 0 mm 0.0 W/m2 CLR
01:50 -3.5 °C -11.6 °C 34371.3 hPa Calm     40 % 0 mm 0.0 W/m2 CLR
01:55 -3.6 °C -11.4 °C 34371.3 hPa Calm     41 % 0 mm 0.0 W/m2 CLR
02:00 -3.6 °C -11.9 °C 34371.3 hPa Calm     39 % 0 mm 0.0 W/m2 CLR
02:05 -3.6 °C -11.5 °C 34361.1 hPa Calm     41 % 0 mm 0.0 W/m2 CLR
02:10 -3.7 °C -11.6 °C 34361.1 hPa Calm     41 % 0 mm 0.0 W/m2 CLR
02:15 -3.6 °C -11.7 °C 34361.1 hPa Calm     40 % 0 mm 0.0 W/m2 CLR
02:20 -3.6 °C -11.7 °C 34361.1 hPa Calm     40 % 0 mm 0.0 W/m2 CLR
02:25 -3.6 °C -11.7 °C 34361.1 hPa Calm     40 % 0 mm 0.0 W/m2 CLR
02:30 -3.6 °C -11.7 °C 34347.6 hPa Calm     40 % 0 mm 0.0 W/m2 CLR
02:35 -3.7 °C -11.8 °C 34347.6 hPa Calm     40 % 0 mm 0.0 W/m2 CLR
02:40 -3.7 °C -11.8 °C 34337.4 hPa Calm     40 % 0 mm 0.0 W/m2 CLR
02:45 -3.7 °C -11.6 °C 34337.4 hPa Calm     41 % 0 mm 0.0 W/m2 CLR
02:50 -3.8 °C -11.7 °C 34337.4 hPa Calm     41 % 0 mm 0.0 W/m2 CLR
02:55 -3.9 °C -11.8 °C 34347.6 hPa Calm     41 % 0 mm 0.0 W/m2 CLR
03:00 -3.9 °C -11.8 °C 34337.4 hPa Calm     41 % 0 mm 0.0 W/m2 CLR
03:05 -3.8 °C -11.7 °C 34337.4 hPa Calm     41 % 0 mm 0.0 W/m2 CLR
03:10 -3.8 °C -11.7 °C 34337.4 hPa Calm     41 % 0 mm 0.0 W/m2 CLR
03:15 -3.8 °C -11.6 °C 34347.6 hPa Calm     41 % 0 mm 0.0 W/m2 CLR
03:20 -3.8 °C -11.7 °C 34337.4 hPa Calm     41 % 0 mm 0.0 W/m2 CLR
03:25 -3.8 °C -11.7 °C 34337.4 hPa Calm     41 % 0 mm 0.0 W/m2 CLR
03:30 -3.8 °C -11.7 °C 34337.4 hPa Calm     41 % 0 mm 0.0 W/m2 CLR
03:35 -3.8 °C -11.8 °C 34327.3 hPa SE 9 km/h 9 km/h 40 % 0 mm 0.0 W/m2 CLR
03:40 -3.7 °C -12 °C 34327.3 hPa ENE 9 km/h   39 % 0 mm 0.0 W/m2 CLR
03:45 -3.7 °C -11.8 °C 34327.3 hPa Calm     40 % 0 mm 0.0 W/m2 CLR
03:50 -3.8 °C -11.9 °C 34327.3 hPa Calm     40 % 0 mm 0.0 W/m2 CLR
03:55 -3.8 °C -12.1 °C 34313.7 hPa Calm     39 % 0 mm 0.0 W/m2 CLR
04:00 -3.8 °C -12.1 °C 34303.6 hPa Calm     39 % 0 mm 0.0 W/m2 CLR
04:05 -3.8 °C -12.1 °C 34293.4 hPa Calm     39 % 0 mm 0.0 W/m2 CLR
04:10 -3.8 °C -12.1 °C 34293.4 hPa Calm     39 % 0 mm 0.0 W/m2 CLR
04:15 -4 °C -11.8 °C 34293.4 hPa Calm     41 % 0 mm 0.0 W/m2 CLR
04:20 -4.1 °C -12.3 °C 34279.9 hPa Calm     39 % 0 mm 0.0 W/m2 CLR
04:25 -4 °C -11.9 °C 34279.9 hPa Calm     41 % 0 mm 0.0 W/m2 CLR
04:30 -4 °C -11.7 °C 34269.7 hPa Calm     42 % 0 mm 0.0 W/m2 CLR
04:35 -4.1 °C -11.6 °C 34279.9 hPa Calm     43 % 0 mm 0.0 W/m2 CLR
04:40 -4.3 °C -11.7 °C 34269.7 hPa Calm     43 % 0 mm 0.0 W/m2 CLR
04:45 -4.4 °C -12.1 °C 34269.7 hPa NE 10.3 km/h 10.3 km/h 42 % 0 mm 0.0 W/m2 CLR
04:50 -4.4 °C -12.1 °C 34269.7 hPa Calm     42 % 0 mm 0.0 W/m2 CLR
04:55 -4.3 °C -12 °C 34256.2 hPa Calm     42 % 0 mm 0.0 W/m2 CLR
05:00 -4.3 °C -11.9 °C 34256.2 hPa Calm     42 % 0 mm 0.0 W/m2 CLR
05:05 -4.2 °C -11.6 °C 34256.2 hPa Calm     43 % 0 mm 0.0 W/m2 CLR
05:10 -4.2 °C -12.1 °C 34246 hPa Calm     41 % 0 mm 0.0 W/m2 CLR
05:15 -4.2 °C -12.2 °C 34246 hPa ESE 3.1 km/h   40 % 0 mm 0.0 W/m2 CLR
05:20 -4.1 °C -12.1 °C 34256.2 hPa Calm     40 % 0 mm 0.0 W/m2 CLR
05:25 -4 °C -12.3 °C 34256.2 hPa Calm     39 % 0 mm 0.0 W/m2 CLR
05:30 -4 °C -12.3 °C 34246 hPa Calm     39 % 0 mm 0.0 W/m2 CLR
05:35 -4 °C -12.1 °C 34246 hPa East 17.9 km/h 17.9 km/h 40 % 0 mm 0.0 W/m2 CLR
05:40 -3.9 °C -12 °C 34246 hPa ENE 3.1 km/h 3.1 km/h 40 % 0 mm 0.0 W/m2 CLR
05:45 -3.9 °C -11.8 °C 34246 hPa ESE 9 km/h 9 km/h 41 % 0 mm 0.0 W/m2 CLR
05:50 -3.9 °C -11.8 °C 34235.8 hPa East 6 km/h 6 km/h 41 % 0 mm 0.0 W/m2 CLR
05:55 -3.9 °C -11.8 °C 34246 hPa Calm     41 % 0 mm 0.0 W/m2 CLR
06:00 -4 °C -11.9 °C 34246 hPa Calm     41 % 0 mm 0.0 W/m2 CLR
06:05 -4.1 °C -11.7 °C 34235.8 hPa ESE 9 km/h 9 km/h 42 % 0 mm 0.0 W/m2 CLR
06:10 -4 °C -11.6 °C 34235.8 hPa ESE 23.8 km/h 23.8 km/h 42 % 0 mm 0.0 W/m2 CLR
06:12 -3.9 °C -11.6 °C 34235.8 hPa ESE 15.6 km/h 15.6 km/h 42 % 0 mm 0.0 W/m2 CLR
06:17 -3.9 °C -11.6 °C 34235.8 hPa SE 15 km/h 15 km/h 42 % 0 mm 0.0 W/m2 CLR
06:22 -3.9 °C -11.6 °C 34235.8 hPa SE 18.2 km/h 18.2 km/h 42 % 0 mm 0.0 W/m2 CLR
06:27 -3.9 °C -11.6 °C 34235.8 hPa Calm     42 % 0 mm 0.0 W/m2 OVC
06:32 -4 °C -11.6 °C 34235.8 hPa Calm     42 % 0 mm 0.0 W/m2 OVC
06:37 -4 °C -11.7 °C 34235.8 hPa Calm     42 % 0 mm 0.0 W/m2 OVC
06:42 -4.1 °C -11.5 °C 34235.8 hPa Calm     43 % 0 mm 0.0 W/m2 OVC
06:47 -4.1 °C -11.3 °C 34235.8 hPa Calm     44 % 0 mm 0.0 W/m2 OVC
06:52 -4.3 °C -10.4 °C 34246 hPa Calm     50 % 0 mm 5.0 W/m2 OVC
06:57 -4.4 °C -11.1 °C 34235.8 hPa Calm     47 % 0 mm 12.0 W/m2 BKN
07:02 -4.4 °C -11.1 °C 34235.8 hPa Calm     47 % 0 mm 19.0 W/m2 BKN
07:07 -4.5 °C -11 °C 34235.8 hPa Calm     48 % 0 mm 25.0 W/m2 BKN
07:12 -4.6 °C -9.9 °C 34235.8 hPa Calm     55 % 0 mm 30.0 W/m2 BKN
07:17 -4.9 °C -9.9 °C 34235.8 hPa Calm     57 % 0 mm 35.0 W/m2 BKN
07:22 -5.2 °C -10.3 °C 34235.8 hPa Calm     56 % 0 mm 35.0 W/m2 BKN
07:27 -5.3 °C -10.4 °C 34246 hPa Calm     56 % 0 mm 37.0 W/m2 BKN
07:32 -5.4 °C -10.2 °C 34246 hPa Calm     58 % 0 mm 42.0 W/m2 BKN
07:37 -5.5 °C -10.2 °C 34235.8 hPa Calm     59 % 0 mm 49.0 W/m2 BKN
07:42 -5.7 °C -10.3 °C 34235.8 hPa Calm     59 % 0 mm 58.0 W/m2 SCT
07:47 -5.8 °C -10.4 °C 34235.8 hPa Calm     59 % 0 mm 65.0 W/m2 SCT
07:52 -5.8 °C -10.3 °C 34235.8 hPa Calm     60 % 0 mm 77.0 W/m2 FEW
07:57 -5.9 °C -10.3 °C 34235.8 hPa Calm     61 % 0 mm 67.0 W/m2 FEW
08:02 -5.9 °C -10.1 °C 34235.8 hPa Calm     62 % 0 mm 62.0 W/m2 FEW
08:07 -5.9 °C -10 °C 34235.8 hPa Calm     63 % 0 mm 62.0 W/m2 SCT
08:13 -5.9 °C -10.4 °C 34235.8 hPa ESE 3.1 km/h   60 % 0 mm 65.0 W/m2 SCT
08:17 -5.7 °C -10 °C 34235.8 hPa Calm     61 % 0 mm 76.0 W/m2 FEW
08:22 -5.6 °C -9.8 °C 34235.8 hPa Calm     62 % 0 mm 83.0 W/m2 FEW
08:27 -5.6 °C -10.4 °C 34246 hPa SW 9 km/h   58 % 0 mm 104.0 W/m2 FEW
08:32 -5.4 °C -10.1 °C 34246 hPa Calm     59 % 0 mm 111.0 W/m2 CLR
08:38 -5.2 °C -10.8 °C 34246 hPa Calm     53 % 0 mm 137.0 W/m2 CLR
08:39 -5.2 °C -10.9 °C 34256.2 hPa Calm     52 % 0 mm 146.0 W/m2 CLR
08:44 -4.8 °C -10.7 °C 34256.2 hPa Calm     51 % 0 mm 190.0 W/m2 CLR
08:49 -4.6 °C -10.4 °C 34256.2 hPa Calm     52 % 0 mm 130.0 W/m2 CLR
08:54 -4.3 °C -9.9 °C 34256.2 hPa SSE 20.9 km/h 20.9 km/h 53 % 0 mm 123.0 W/m2 CLR
08:59 -3.9 °C -9.6 °C 34256.2 hPa South 26.9 km/h 26.9 km/h 53 % 0 mm 137.0 W/m2 CLR
09:04 -3.8 °C -9.6 °C 34256.2 hPa SSE 35.7 km/h 35.7 km/h 53 % 0 mm 134.0 W/m2 CLR
09:09 -3.8 °C -9.1 °C 34256.2 hPa South 38.8 km/h 38.8 km/h 55 % 0 mm 155.0 W/m2 CLR
09:14 -3.7 °C -9.1 °C 34256.2 hPa SE 23.8 km/h 23.8 km/h 55 % 0 mm 188.0 W/m2 CLR
09:19 -3.7 °C -8.9 °C 34256.2 hPa SSE 44.7 km/h 44.7 km/h 56 % 0 mm 313.0 W/m2 CLR
09:24 -3.6 °C -8.8 °C 34256.2 hPa SE 38.8 km/h 38.8 km/h 56 % 0 mm 278.0 W/m2 CLR
09:29 -3.6 °C -8.7 °C 34256.2 hPa SSE 38.8 km/h 38.8 km/h 57 % 0 mm 241.0 W/m2 CLR
09:34 -3.7 °C -8.7 °C 34269.7 hPa SSE 32.8 km/h 32.8 km/h 57 % 0 mm 255.0 W/m2 CLR
09:39 -3.7 °C -8.6 °C 34269.7 hPa SSE 29.8 km/h 29.8 km/h 58 % 0 mm 287.0 W/m2 CLR
09:44 -3.6 °C -8.5 °C 34269.7 hPa South 32.8 km/h 32.8 km/h 58 % 0 mm 397.0 W/m2 CLR
09:49 -3.6 °C -8.5 °C 34269.7 hPa SSE 38.8 km/h 38.8 km/h 58 % 0 mm 450.0 W/m2 CLR
09:54 -3.4 °C -8.4 °C 34279.9 hPa SSE 20.8 km/h 20.8 km/h 58 % 0 mm 476.0 W/m2 CLR
09:59 -3.3 °C -8.4 °C 34269.7 hPa South 29.8 km/h 29.8 km/h 57 % 0 mm 490.0 W/m2 CLR
10:04 -3.3 °C -8.4 °C 34279.9 hPa SE 17.9 km/h 17.9 km/h 57 % 0 mm 529.0 W/m2 CLR
10:09 -3.1 °C -8.4 °C 34279.9 hPa Calm     56 % 0 mm 571.0 W/m2 CLR
10:14 -2.9 °C -8.4 °C 34279.9 hPa ESE 15 km/h 15 km/h 55 % 0 mm 601.0 W/m2 CLR
10:19 -2.9 °C -8.3 °C 34269.7 hPa South 17.9 km/h 17.9 km/h 55 % 0 mm 649.0 W/m2 CLR
10:24 -2.7 °C -8.2 °C 34269.7 hPa ESE 17.9 km/h 17.9 km/h 55 % 0 mm 668.0 W/m2 CLR
10:29 -2.6 °C -8.2 °C 34279.9 hPa SE 23.8 km/h 23.8 km/h 54 % 0 mm 735.0 W/m2 CLR
10:34 -2.7 °C -8.3 °C 34279.9 hPa ESE 17.9 km/h 17.9 km/h 54 % 0 mm 693.0 W/m2 CLR
10:39 -2.6 °C -8.5 °C 34279.9 hPa SSW 23.8 km/h 23.8 km/h 52 % 0 mm 714.0 W/m2 CLR
10:44 -2.6 °C -8.3 °C 34279.9 hPa Calm     53 % 0 mm 244.0 W/m2 CLR
10:49 -2.6 °C -8.4 °C 34279.9 hPa SSE 11.9 km/h 11.9 km/h 53 % 0 mm 320.0 W/m2 CLR
10:54 -2.7 °C -8.4 °C 34279.9 hPa Calm     53 % 0 mm 139.0 W/m2 CLR
10:59 -2.8 °C -8.4 °C 34279.9 hPa East 10.3 km/h 10.3 km/h 54 % 0 mm 160.0 W/m2 CLR
11:04 -2.8 °C -8.4 °C 34279.9 hPa SE 20.9 km/h 20.9 km/h 54 % 0 mm 264.0 W/m2 CLR
11:09 -2.9 °C -8.5 °C 34279.9 hPa Calm     54 % 0 mm 246.0 W/m2 CLR
11:14 -2.8 °C -8.4 °C 34279.9 hPa Calm     54 % 0 mm 281.0 W/m2 CLR
11:19 -2.7 °C -8.3 °C 34279.9 hPa Calm     54 % 0 mm 851.0 W/m2 CLR
11:24 -2.6 °C -8.4 °C 34279.9 hPa East 11.9 km/h 11.9 km/h 53 % 0 mm 234.0 W/m2 CLR
11:29 -2.6 °C -8.2 °C 34279.9 hPa Calm     54 % 0 mm 276.0 W/m2 CLR
11:34 -2.3 °C -7.9 °C 34279.9 hPa ESE 23.8 km/h 23.8 km/h 54 % 0 mm 847.0 W/m2 CLR
11:39 -2.1 °C -7.7 °C 34269.7 hPa East 17.9 km/h 17.9 km/h 54 % 0 mm 786.0 W/m2 CLR
11:44 -2.1 °C -7.7 °C 34269.7 hPa SSE 29.8 km/h 29.8 km/h 54 % 0 mm 819.0 W/m2 CLR
11:49 -2.1 °C -7.7 °C 34269.7 hPa SE 38.8 km/h 38.8 km/h 54 % 0 mm 831.0 W/m2 CLR
11:55 -2.2 °C -8 °C 34256.2 hPa East 32.8 km/h 32.8 km/h 53 % 0 mm 867.0 W/m2 CLR
12:00 -2.1 °C -7.9 °C 34256.2 hPa SE 38.8 km/h 38.8 km/h 53 % 0 mm 234.0 W/m2 CLR
12:05 -2.1 °C -8 °C 34256.2 hPa SE 26.9 km/h 29.3 km/h 52 % 0 mm 902.0 W/m2 CLR
12:10 -1.9 °C -7.8 °C 34256.2 hPa ESE 32.8 km/h 32.8 km/h 53 % 0 mm 902.0 W/m2 CLR
12:15 -1.9 °C -7.9 °C 34256.2 hPa ENE 20.9 km/h 20.9 km/h 52 % 0 mm 914.0 W/m2 CLR
12:20 -1.8 °C -7.9 °C 34256.2 hPa SE 26.9 km/h 26.9 km/h 51 % 0 mm 225.0 W/m2 CLR
12:25 -2 °C -8.2 °C 34246 hPa ESE 26.9 km/h 26.9 km/h 51 % 0 mm 918.0 W/m2 CLR
12:30 -1.8 °C -8 °C 34246 hPa ESE 32.8 km/h 32.8 km/h 51 % 0 mm 905.0 W/m2 CLR
12:35 -1.8 °C -8 °C 34246 hPa SE 20.8 km/h 20.8 km/h 51 % 0 mm 914.0 W/m2 CLR
12:40 -1.7 °C -8.1 °C 34246 hPa ESE 32.8 km/h 32.8 km/h 50 % 0 mm 905.0 W/m2 CLR
12:45 -1.8 °C -8.1 °C 34235.8 hPa East 32.8 km/h 32.8 km/h 50 % 0 mm 960.0 W/m2 CLR
12:50 -1.6 °C -8 °C 34235.8 hPa ESE 29.8 km/h 30.3 km/h 50 % 0 mm 211.0 W/m2 CLR
12:55 -1.6 °C -7.8 °C 34235.8 hPa SE 29.8 km/h 29.8 km/h 51 % 0 mm 979.0 W/m2 CLR
13:00 -1.6 °C -7.7 °C 34235.8 hPa ESE 35.7 km/h 35.7 km/h 51 % 0 mm 916.0 W/m2 CLR
13:05 -1.6 °C -7.9 °C 34235.8 hPa ESE 44.7 km/h 44.7 km/h 50 % 0 mm 911.0 W/m2 CLR
13:10 -1.6 °C -7.8 °C 34222.3 hPa East 41.7 km/h 41.7 km/h 51 % 0 mm 951.0 W/m2 CLR
13:15 -1.6 °C -8.3 °C 34222.3 hPa SE 47.6 km/h 47.6 km/h 48 % 0 mm 911.0 W/m2 CLR
13:20 -1.5 °C -7.9 °C 34222.3 hPa ESE 44.7 km/h 44.7 km/h 50 % 0 mm 911.0 W/m2 CLR
13:25 -1.3 °C -7.9 °C 34222.3 hPa ESE 36.2 km/h 39.6 km/h 49 % 0 mm 928.0 W/m2 CLR
13:30 -1.4 °C -8.2 °C 34222.3 hPa ESE 38.8 km/h 38.8 km/h 48 % 0 mm 919.0 W/m2 CLR
13:35 -1.5 °C -8.2 °C 34212.1 hPa ESE 38.8 km/h 38.8 km/h 48 % 0 mm 912.0 W/m2 CLR
13:40 -1.4 °C -8.2 °C 34212.1 hPa East 29.8 km/h 29.8 km/h 48 % 0 mm 918.0 W/m2 CLR
13:45 -1.3 °C -8.4 °C 34212.1 hPa SE 32.8 km/h 33.5 km/h 46 % 0 mm 923.0 W/m2 CLR
13:50 -1.2 °C -8.5 °C 34212.1 hPa SE 44.1 km/h 44.1 km/h 45 % 0 mm 918.0 W/m2 CLR
13:55 -1.1 °C -8.4 °C 34198.6 hPa East 50.7 km/h 50.7 km/h 45 % 0 mm 947.0 W/m2 CLR
14:00 -1.2 °C -7.9 °C 34198.6 hPa East 47.6 km/h 47.6 km/h 48 % 0 mm 928.0 W/m2 CLR
14:05 -1.2 °C -8 °C 34198.6 hPa East 50.7 km/h 50.7 km/h 48 % 0 mm 360.0 W/m2 CLR
14:10 -1.3 °C -7.9 °C 34188.4 hPa ESE 49.2 km/h 49.2 km/h 49 % 0 mm 1104.0 W/m2 CLR
14:15 -1.4 °C -8.4 °C 34188.4 hPa ESE 41.7 km/h 41.7 km/h 47 % 0 mm 346.0 W/m2 CLR
14:20 -1.3 °C -8.7 °C 34188.4 hPa ENE 35.7 km/h 35.7 km/h 45 % 0 mm 301.0 W/m2 CLR
14:25 -1.3 °C -8.7 °C 34188.4 hPa SE 29.8 km/h 29.8 km/h 45 % 0 mm 253.0 W/m2 CLR
14:30 -1.2 °C -8.7 °C 34188.4 hPa SSE 44.7 km/h 44.7 km/h 44 % 0 mm 383.0 W/m2 CLR
14:35 -1.2 °C -8.1 °C 34178.3 hPa ESE 35.7 km/h 35.7 km/h 47 % 0 mm 385.0 W/m2 CLR
14:40 -1.2 °C -8.2 °C 34178.3 hPa East 35.7 km/h 35.7 km/h 47 % 0 mm 360.0 W/m2 CLR
14:45 -1.3 °C -8 °C 34178.3 hPa ESE 35.7 km/h 35.7 km/h 48 % 0 mm 403.0 W/m2 CLR
14:50 -1.2 °C -8 °C 34178.3 hPa ESE 31.1 km/h 31.1 km/h 48 % 0 mm 278.0 W/m2 CLR
14:55 -1.4 °C -7.9 °C 34178.3 hPa SSE 32.8 km/h 32.8 km/h 49 % 0 mm 193.0 W/m2 CLR
15:00 -1.4 °C -8 °C 34178.3 hPa ESE 35.7 km/h 35.7 km/h 49 % 0 mm 183.0 W/m2 CLR
15:05 -1.4 °C -8.2 °C 34178.3 hPa East 29.8 km/h 29.8 km/h 48 % 0 mm 162.0 W/m2 CLR
15:10 -1.5 °C -8.3 °C 34178.3 hPa ESE 15 km/h 15 km/h 48 % 0 mm 97.0 W/m2 CLR
15:15 -1.5 °C -8.4 °C 34178.3 hPa SSE 29.8 km/h 29.8 km/h 47 % 0 mm 49.0 W/m2 CLR
15:20 -1.7 °C -8.2 °C 34188.4 hPa NW 32.8 km/h 32.8 km/h 49 % 0 mm 53.0 W/m2 SCT
15:25 -2.3 °C -8.1 °C 34188.4 hPa NW 32.8 km/h 32.8 km/h 53 % 0 mm 40.0 W/m2 SCT
15:30 -2.6 °C -7.7 °C 34188.4 hPa NNE 50.7 km/h 50.7 km/h 57 % 0 mm 42.0 W/m2 BKN
15:35 -3.2 °C -7.2 °C 34198.6 hPa NW 35.7 km/h 35.7 km/h 65 % 33.02 mm 51.0 W/m2 RA
15:40 -3.8 °C -7.1 °C 34198.6 hPa North 44.1 km/h 44.1 km/h 70 % 38.1 mm 51.0 W/m2 RA
15:45 -4.5 °C -7.2 °C 34212.1 hPa North 35.7 km/h 35.7 km/h 74 % 50.8 mm 90.0 W/m2 RA
15:50 -4.8 °C -7.1 °C 34222.3 hPa Calm     78 % 96.52 mm 53.0 W/m2 RA
15:51 -4.8 °C -6.9 °C 34222.3 hPa Calm     79 % 104.14 mm 56.0 W/m2 RA
16:01 -5 °C -6.7 °C 34212.1 hPa NE 18.2 km/h 18.2 km/h 83 % 129.54 mm 309.0 W/m2 CLR
16:06 -4.9 °C -6.3 °C 34222.3 hPa Calm     86 % 129.54 mm 1007.0 W/m2 RA
16:11 -4.9 °C -6.5 °C 34222.3 hPa Calm     84 % 129.54 mm 153.0 W/m2 CLR
16:16 -5 °C -6.6 °C 34222.3 hPa Calm     84 % 129.54 mm 111.0 W/m2 CLR
16:21 -5.1 °C -6.5 °C 34222.3 hPa Calm     85 % 129.54 mm 100.0 W/m2 CLR
16:26 -5 °C -6.3 °C 34212.1 hPa Calm     86 % 129.54 mm 132.0 W/m2 CLR
16:31 -5.1 °C -6.4 °C 34212.1 hPa Calm     86 % 129.54 mm 128.0 W/m2 CLR
16:36 -4.9 °C -6.1 °C 34212.1 hPa Calm     88 % 96.52 mm 132.0 W/m2 CLR
16:41 -4.9 °C -6.2 °C 34212.1 hPa Calm     87 % 96.52 mm 141.0 W/m2 CLR
16:46 -4.9 °C -6.2 °C 34212.1 hPa Calm     87 % 63.5 mm 118.0 W/m2 CLR
16:51 -4.9 °C -6.3 °C 34212.1 hPa Calm     86 % 33.02 mm 100.0 W/m2 CLR
16:56 -4.9 °C -6.3 °C 34212.1 hPa Calm     86 % 7.62 mm 79.0 W/m2 CLR
17:01 -4.9 °C -6.3 °C 34222.3 hPa Calm     86 % 12.7 mm 62.0 W/m2 RA
17:06 -4.9 °C -6.3 °C 34222.3 hPa Calm     86 % 20.32 mm 46.0 W/m2 RA
17:11 -5 °C -6.3 °C 34222.3 hPa Calm     86 % 33.02 mm 42.0 W/m2 RA
17:16 -5.1 °C -6.4 °C 34222.3 hPa Calm     86 % 45.72 mm 42.0 W/m2 RA
17:21 -5.1 °C -6.3 °C 34222.3 hPa Calm     87 % 50.8 mm 40.0 W/m2 RA
17:26 -5.1 °C -6.4 °C 34222.3 hPa Calm     87 % 58.42 mm 46.0 W/m2 RA
17:31 -5.1 °C -6.3 °C 34222.3 hPa Calm     88 % 58.42 mm 46.0 W/m2 RA
17:36 -5.1 °C -6.3 °C 34222.3 hPa Calm     88 % 63.5 mm 42.0 W/m2 RA
17:41 -5.1 °C -6.3 °C 34222.3 hPa Calm     88 % 63.5 mm 44.0 W/m2 BKN
17:46 -5.1 °C -6.3 °C 34222.3 hPa Calm     88 % 76.2 mm 49.0 W/m2 RA
17:51 -5.1 °C -6.2 °C 34222.3 hPa Calm     89 % 83.82 mm 53.0 W/m2 RA
17:56 -5.1 °C -6.1 °C 34222.3 hPa Calm     89 % 83.82 mm 39.0 W/m2 SCT
18:01 -5.1 °C -6.1 °C 34222.3 hPa Calm     90 % 76.2 mm 33.0 W/m2 BKN
18:06 -5.1 °C -6.2 °C 34222.3 hPa Calm     89 % 63.5 mm 35.0 W/m2 RA
18:11 -5.1 °C -6.1 °C 34235.8 hPa Calm     90 % 58.42 mm 32.0 W/m2 BKN
18:16 -5.1 °C -6 °C 34235.8 hPa Calm     90 % 45.72 mm 49.0 W/m2 RA
18:21 -5.1 °C -6.2 °C 34222.3 hPa NNE 12.9 km/h 12.9 km/h 89 % 38.1 mm 72.0 W/m2 SCT
18:26 -5.2 °C -6.2 °C 34235.8 hPa Calm     89 % 38.1 mm 81.0 W/m2 RA
18:31 -5.2 °C -6.3 °C 34235.8 hPa Calm     89 % 38.1 mm 97.0 W/m2 RA
18:36 -5.2 °C -6.2 °C 34222.3 hPa Calm     89 % 38.1 mm 353.0 W/m2 RA
18:41 -5.2 °C -6.2 °C 34235.8 hPa Calm     89 % 38.1 mm 123.0 W/m2 CLR
18:46 -5.2 °C -6.2 °C 34235.8 hPa Calm     89 % 38.1 mm 120.0 W/m2 RA
18:51 -5.1 °C -6.2 °C 34222.3 hPa Calm     89 % 38.1 mm 137.0 W/m2 RA
18:56 -5.2 °C -6.2 °C 34222.3 hPa Calm     89 % 38.1 mm 86.0 W/m2 CLR
19:02 -5.2 °C -6.2 °C 34235.8 hPa Calm     89 % 38.1 mm 18.0 W/m2 RA
19:07 -5.3 °C -6.5 °C 34256.2 hPa West 46.7 km/h 46.7 km/h 88 % 38.1 mm 5.0 W/m2 BKN
19:12 -6.3 °C -7.9 °C 34256.2 hPa NW 107.2 km/h 107.2 km/h 83 % 38.1 mm 16.0 W/m2 RA
19:17 -7.3 °C -8.4 °C 34269.7 hPa NNW 92.4 km/h 92.4 km/h 88 % 251.46 mm 65.0 W/m2 RA
19:22 -7.6 °C -8.6 °C 34269.7 hPa North 71.5 km/h 71.5 km/h 89 % 335.28 mm 213.0 W/m2 RA
19:27 -7.6 °C -8.6 °C 34279.9 hPa North 62.6 km/h 62.6 km/h 90 % 360.68 mm 410.0 W/m2 RA
19:32 -7.7 °C -8.6 °C 34269.7 hPa NNE 53.6 km/h 53.6 km/h 90 % 368.3 mm 223.0 W/m2 RA
19:37 -7.5 °C -8.4 °C 34269.7 hPa NE 50.7 km/h 50.7 km/h 90 % 368.3 mm 218.0 W/m2 CLR
19:42 -7.4 °C -8.6 °C 34256.2 hPa North 38.8 km/h 38.8 km/h 88 % 368.3 mm 192.0 W/m2 CLR
19:47 -7.2 °C -8.4 °C 34256.2 hPa NE 29.8 km/h 29.8 km/h 88 % 360.68 mm 179.0 W/m2 CLR
19:52 -7.2 °C -8.4 °C 34256.2 hPa NNE 29.8 km/h 29.8 km/h 88 % 355.6 mm 146.0 W/m2 CLR
19:57 -7.2 °C -8.2 °C 34256.2 hPa Calm     89 % 355.6 mm 100.0 W/m2 CLR
20:02 -7.2 °C -8.1 °C 34256.2 hPa Calm     90 % 347.98 mm 90.0 W/m2 CLR
20:07 -7.1 °C -8.1 °C 34256.2 hPa Calm     90 % 347.98 mm 56.0 W/m2 CLR
20:12 -7.1 °C -8.1 °C 34256.2 hPa Calm     89 % 347.98 mm 37.0 W/m2 FEW
20:17 -7.1 °C -8.1 °C 34269.7 hPa Calm     89 % 129.54 mm 26.0 W/m2 BKN
20:22 -7 °C -8 °C 34269.7 hPa Calm     89 % 45.72 mm 30.0 W/m2 BKN
20:27 -6.9 °C -8.1 °C 34269.7 hPa South 29.8 km/h 29.8 km/h 88 % 12.7 mm 32.0 W/m2 BKN
20:32 -6.9 °C -8.1 °C 34269.7 hPa SSW 18.2 km/h 18.2 km/h 88 % 0 mm 26.0 W/m2 BKN
20:37 -6.9 °C -8.2 °C 34279.9 hPa SSW 11.9 km/h 11.9 km/h 87 % 0 mm 18.0 W/m2 BKN
20:42 -6.9 °C -8.2 °C 34279.9 hPa SW 15 km/h 15 km/h 87 % 0 mm 16.0 W/m2 BKN
20:47 -6.9 °C -8.1 °C 34279.9 hPa SW 17.9 km/h 17.9 km/h 87 % 0 mm 14.0 W/m2 BKN
20:52 -6.8 °C -8 °C 34279.9 hPa SW 11.9 km/h 11.9 km/h 88 % 0 mm 12.0 W/m2 BKN
20:57 -6.8 °C -8 °C 34279.9 hPa SW 9 km/h 9 km/h 88 % 0 mm 9.0 W/m2 BKN
21:02 -6.8 °C -8 °C 34279.9 hPa WSW 15 km/h 15 km/h 88 % 0 mm 7.0 W/m2 BKN
21:07 -6.9 °C -8.1 °C 34279.9 hPa WSW 23.8 km/h 23.8 km/h 87 % 0 mm 5.0 W/m2 OVC
21:12 -6.8 °C -8.2 °C 34279.9 hPa WSW 10.3 km/h 14 km/h 86 % 0 mm 0.0 W/m2 OVC
21:17 -6.8 °C -8.1 °C 34279.9 hPa West 17.9 km/h 17.9 km/h 86 % 0 mm 0.0 W/m2 OVC
21:22 -6.7 °C -8.2 °C 34279.9 hPa WSW 20.9 km/h 20.9 km/h 85 % 0 mm 0.0 W/m2 OVC
21:27 -6.7 °C -8 °C 34279.9 hPa WSW 17.9 km/h 17.9 km/h 86 % 0 mm 0.0 W/m2 OVC
21:32 -6.7 °C -8 °C 34279.9 hPa SW 9 km/h 9.3 km/h 86 % 0 mm 0.0 W/m2 OVC
21:37 -6.7 °C -8 °C 34293.4 hPa SW 18.2 km/h 18.2 km/h 86 % 0 mm 0.0 W/m2 OVC
21:42 -6.7 °C -7.9 °C 34293.4 hPa SW 9 km/h   87 % 0 mm 0.0 W/m2 OVC
21:47 -6.7 °C -7.9 °C 34293.4 hPa Calm     87 % 0 mm 0.0 W/m2 CLR
21:52 -6.7 °C -7.9 °C 34293.4 hPa Calm     88 % 0 mm 0.0 W/m2 CLR
21:57 -6.8 °C -7.9 °C 34279.9 hPa Calm     88 % 0 mm 0.0 W/m2 CLR
22:02 -6.8 °C -7.9 °C 34279.9 hPa Calm     88 % 0 mm 0.0 W/m2 CLR
22:07 -6.8 °C -8 °C 34279.9 hPa Calm     87 % 0 mm 0.0 W/m2 CLR
22:12 -6.7 °C -7.9 °C 34293.4 hPa Calm     88 % 0 mm 0.0 W/m2 CLR
22:17 -6.7 °C -7.9 °C 34293.4 hPa Calm     88 % 0 mm 0.0 W/m2 CLR
22:22 -6.8 °C -7.9 °C 34293.4 hPa Calm     88 % 0 mm 0.0 W/m2 CLR
22:27 -6.8 °C -8 °C 34293.4 hPa Calm     88 % 0 mm 0.0 W/m2 CLR
22:32 -6.9 °C -8.1 °C 34293.4 hPa Calm     88 % 0 mm 0.0 W/m2 CLR
22:37 -6.9 °C -8 °C 34293.4 hPa Calm     89 % 0 mm 0.0 W/m2 CLR
22:42 -6.9 °C -8 °C 34303.6 hPa Calm     89 % 0 mm 0.0 W/m2 CLR
22:47 -7 °C -8 °C 34303.6 hPa Calm     89 % 0 mm 0.0 W/m2 CLR
22:52 -7 °C -8 °C 34293.4 hPa Calm     89 % 0 mm 0.0 W/m2 CLR
22:53 -7 °C -8 °C 34293.4 hPa Calm     89 % 0 mm 0.0 W/m2 CLR
22:58 -7 °C -8 °C 34293.4 hPa Calm     89 % 0 mm 0.0 W/m2 CLR
23:03 -7.1 °C -8.1 °C 34293.4 hPa Calm     89 % 0 mm 0.0 W/m2 CLR
23:08 -7.1 °C -8.1 °C 34293.4 hPa Calm     89 % 0 mm 0.0 W/m2 CLR
23:13 -7.1 °C -8.1 °C 34303.6 hPa Calm     89 % 0 mm 0.0 W/m2 CLR
23:18 -7.1 °C -8.1 °C 34303.6 hPa Calm     89 % 0 mm 0.0 W/m2 CLR
23:23 -7.1 °C -8.2 °C 34303.6 hPa Calm     88 % 0 mm 0.0 W/m2 CLR
23:28 -7.1 °C -8.1 °C 34303.6 hPa Calm     89 % 0 mm 0.0 W/m2 CLR
23:33 -7.1 °C -8.1 °C 34293.4 hPa Calm     89 % 0 mm 0.0 W/m2 CLR
23:38 -7.1 °C -8.1 °C 34293.4 hPa Calm     89 % 0 mm 0.0 W/m2 CLR
23:43 -7.2 °C -8.2 °C 34303.6 hPa Calm     89 % 0 mm 0.0 W/m2 CLR
23:48 -7.2 °C -8.2 °C 34293.4 hPa Calm     89 % 0 mm 0.0 W/m2 CLR
23:53 -7.2 °C -8.2 °C 34293.4 hPa Calm     89 % 0 mm 0.0 W/m2 CLR
23:58 -7.2 °C -8.1 °C 34293.4 hPa Calm     90 % 0 mm 0.0 W/m2 CLR
Lo Temps de Massalio
Compliments of Weather Underground - 1.25 mb